Time,TemperatureF,DewpointF,PressureIn,WindDirection,WindDirectionDegrees,WindSpeedMPH,WindSpeedGustMPH,Humidity,HourlyPrecipIn,Conditions,Clouds,dailyrainin,SoftwareType,DateUTC
2013-04-24 00:01:00,72.9,72.9,29.23,ENE,59,3.9,4.6,100,0.00,,FEW,0.00,WeatherDisplay:10.37,2013-04-24 05:01:00,
2013-04-24 00:06:00,72.9,72.9,29.23,East,87,1.4,3.5,100,0.00,,FEW,0.00,WeatherDisplay:10.37,2013-04-24 05:06:00,
2013-04-24 00:11:00,73.0,73.0,29.24,SE,130,1.9,5.8,100,0.00,,FEW,0.00,WeatherDisplay:10.37,2013-04-24 05:11:00,
2013-04-24 00:16:00,72.9,72.9,29.24,ESE,114,0.0,2.3,100,0.00,,FEW,0.00,WeatherDisplay:10.37,2013-04-24 05:16:00,
2013-04-24 00:21:00,73.0,73.0,29.25,East,88,0.0,1.1,100,0.00,,FEW,0.00,WeatherDisplay:10.37,2013-04-24 05:21:00,
2013-04-24 00:26:00,72.9,72.9,29.25,East,87,0.0,0.0,100,0.00,,FEW,0.00,WeatherDisplay:10.37,2013-04-24 05:26:00,
2013-04-24 00:31:00,72.9,72.9,29.25,East,83,0.0,0.0,100,0.00,,FEW,0.00,WeatherDisplay:10.37,2013-04-24 05:31:00,
2013-04-24 00:36:00,73.0,73.0,29.25,ESE,106,0.5,2.3,100,0.00,,FEW,0.00,WeatherDisplay:10.37,2013-04-24 05:36:00,
2013-04-24 00:41:00,73.0,73.0,29.25,ESE,122,0.8,3.5,100,0.00,,FEW,0.00,WeatherDisplay:10.37,2013-04-24 05:41:00,
2013-04-24 00:46:00,73.1,73.1,29.25,ESE,118,0.0,1.1,100,0.00,,FEW,0.00,WeatherDisplay:10.37,2013-04-24 05:46:00,
2013-04-24 00:51:00,73.1,73.1,29.25,ESE,105,0.0,1.1,100,0.00,,FEW,0.00,WeatherDisplay:10.37,2013-04-24 05:51:00,
2013-04-24 00:56:00,73.1,73.1,29.25,East,96,0.1,1.1,100,0.00,,FEW,0.00,WeatherDisplay:10.37,2013-04-24 05:56:00,
2013-04-24 01:01:00,73.1,73.1,29.25,ESE,103,0.5,1.1,100,0.00,,FEW,0.00,WeatherDisplay:10.37,2013-04-24 06:01:00,
2013-04-24 01:06:00,73.1,73.1,29.25,ESE,111,1.0,1.1,100,0.00,,FEW,0.00,WeatherDisplay:10.37,2013-04-24 06:06:00,
2013-04-24 01:11:00,73.1,73.1,29.25,ENE,76,1.6,3.5,100,0.00,,FEW,0.00,WeatherDisplay:10.37,2013-04-24 06:11:00,
2013-04-24 01:16:00,73.2,73.2,29.25,East,99,0.4,2.1,100,0.00,,FEW,0.00,WeatherDisplay:10.37,2013-04-24 06:16:00,
2013-04-24 01:21:00,73.2,73.2,29.25,NE,46,2.3,3.8,100,0.00,,FEW,0.00,WeatherDisplay:10.37,2013-04-24 06:21:00,
2013-04-24 01:26:00,73.2,73.2,29.25,East,80,0.1,2.3,100,0.00,,FEW,0.00,WeatherDisplay:10.37,2013-04-24 06:26:00,
2013-04-24 01:31:00,73.2,73.2,29.24,East,99,2.0,5.8,100,0.00,,FEW,0.00,WeatherDisplay:10.37,2013-04-24 06:31:00,
2013-04-24 01:36:00,73.2,73.2,29.24,ESE,111,1.0,1.1,100,0.00,,FEW,0.00,WeatherDisplay:10.37,2013-04-24 06:36:00,
2013-04-24 01:41:00,73.2,73.2,29.24,East,96,2.7,5.3,100,0.00,,FEW,0.00,WeatherDisplay:10.37,2013-04-24 06:41:00,
2013-04-24 01:46:00,73.1,73.1,29.24,ENE,77,3.4,8.1,100,0.00,,FEW,0.00,WeatherDisplay:10.37,2013-04-24 06:46:00,
2013-04-24 01:51:00,73.1,73.1,29.24,ENE,64,4.5,5.8,100,0.00,,FEW,0.00,WeatherDisplay:10.37,2013-04-24 06:51:00,
2013-04-24 01:56:00,73.1,73.1,29.24,ENE,74,4.0,5.8,100,0.00,,FEW,0.00,WeatherDisplay:10.37,2013-04-24 06:56:00,
2013-04-24 02:01:00,73.1,73.1,29.24,East,98,5.1,5.8,100,0.00,,FEW,0.00,WeatherDisplay:10.37,2013-04-24 07:01:00,
2013-04-24 02:06:00,73.1,73.1,29.24,East,92,3.4,5.8,100,0.00,,FEW,0.00,WeatherDisplay:10.37,2013-04-24 07:06:00,
2013-04-24 02:11:00,73.1,73.1,29.24,ESE,111,1.0,3.5,100,0.00,,FEW,0.00,WeatherDisplay:10.37,2013-04-24 07:11:00,
2013-04-24 02:16:00,73.1,73.1,29.24,East,91,1.4,3.8,100,0.00,,FEW,0.00,WeatherDisplay:10.37,2013-04-24 07:16:00,
2013-04-24 02:21:00,73.1,73.1,29.24,ESE,104,1.6,5.8,100,0.00,,FEW,0.00,WeatherDisplay:10.37,2013-04-24 07:21:00,
2013-04-24 02:26:00,73.0,73.0,29.24,ENE,57,0.9,2.3,100,0.00,,FEW,0.00,WeatherDisplay:10.37,2013-04-24 07:26:00,
2013-04-24 02:31:00,72.8,72.8,29.25,NNE,33,4.8,7.5,100,0.00,,FEW,0.00,WeatherDisplay:10.37,2013-04-24 07:31:00,
2013-04-24 02:36:00,67.5,63.5,29.25,North,9,10.4,10.4,87,0.00,,FEW,0.00,WeatherDisplay:10.37,2013-04-24 07:36:00,
2013-04-24 02:41:00,65.2,61.6,29.25,North,355,9.6,12.7,88,0.00,,FEW,0.00,WeatherDisplay:10.37,2013-04-24 07:41:00,
2013-04-24 02:46:00,64.2,60.6,29.26,NNE,21,10.0,10.0,88,0.00,,FEW,0.00,WeatherDisplay:10.37,2013-04-24 07:46:00,
2013-04-24 02:51:00,63.5,59.6,29.26,NNE,26,9.3,12.7,87,0.00,,FEW,0.00,WeatherDisplay:10.37,2013-04-24 07:51:00,
2013-04-24 02:56:00,63.3,59.7,29.26,NNW,339,10.1,10.1,88,0.00,,FEW,0.00,WeatherDisplay:10.37,2013-04-24 07:56:00,
2013-04-24 03:01:00,63.1,59.5,29.26,North,11,8.0,9.4,88,0.00,,FEW,0.00,WeatherDisplay:10.37,2013-04-24 08:01:00,
2013-04-24 03:06:00,62.8,59.2,29.27,North,3,11.6,11.6,88,0.00,,FEW,0.00,WeatherDisplay:10.37,2013-04-24 08:06:00,
2013-04-24 03:11:00,62.5,58.9,29.27,NNW,331,14.1,14.1,88,0.00,,FEW,0.00,WeatherDisplay:10.37,2013-04-24 08:11:00,
2013-04-24 03:16:00,62.1,58.5,29.27,NNE,17,13.1,13.1,88,0.00,,FEW,0.00,WeatherDisplay:10.37,2013-04-24 08:16:00,
2013-04-24 03:21:00,61.4,57.8,29.28,NNE,19,12.4,12.4,88,0.00,,FEW,0.00,WeatherDisplay:10.37,2013-04-24 08:21:00,
2013-04-24 03:26:00,60.7,57.4,29.28,North,354,15.2,17.3,89,0.00,,FEW,0.00,WeatherDisplay:10.37,2013-04-24 08:26:00,
2013-04-24 03:31:00,60.1,57.2,29.28,North,358,8.9,8.9,90,0.00,,FEW,0.00,WeatherDisplay:10.37,2013-04-24 08:31:00,
2013-04-24 03:36:00,59.6,56.7,29.28,North,3,14.3,23.0,90,0.00,,FEW,0.00,WeatherDisplay:10.37,2013-04-24 08:36:00,
2013-04-24 03:41:00,58.9,56.0,29.28,NNE,12,13.2,17.3,90,0.00,,FEW,0.00,WeatherDisplay:10.37,2013-04-24 08:41:00,
2013-04-24 03:46:00,58.3,55.7,29.28,West,277,5.1,11.5,91,0.00,,FEW,0.00,WeatherDisplay:10.37,2013-04-24 08:46:00,
2013-04-24 03:51:00,57.7,55.4,29.29,NNE,17,17.3,17.3,92,0.00,,FEW,0.00,WeatherDisplay:10.37,2013-04-24 08:51:00,
2013-04-24 03:56:00,57.2,54.9,29.29,North,360,10.4,10.4,92,0.00,,FEW,0.00,WeatherDisplay:10.37,2013-04-24 08:56:00,
2013-04-24 04:01:00,56.8,54.5,29.29,NNE,15,14.1,14.1,92,0.00,,FEW,0.00,WeatherDisplay:10.37,2013-04-24 09:01:00,
2013-04-24 04:06:00,56.1,54.1,29.29,NNE,13,11.8,11.8,93,0.00,,FEW,0.00,WeatherDisplay:10.37,2013-04-24 09:06:00,
2013-04-24 04:11:00,55.7,53.7,29.30,NNW,348,11.2,15.0,93,0.00,,FEW,0.00,WeatherDisplay:10.37,2013-04-24 09:11:00,
2013-04-24 04:16:00,55.3,53.3,29.30,NE,40,15.3,15.3,93,0.00,,FEW,0.00,WeatherDisplay:10.37,2013-04-24 09:16:00,
2013-04-24 04:21:00,54.9,53.2,29.30,NE,49,11.7,11.7,94,0.00,,FEW,0.00,WeatherDisplay:10.37,2013-04-24 09:21:00,
2013-04-24 04:26:00,54.7,53.0,29.30,NE,45,14.7,14.7,94,0.00,,FEW,0.00,WeatherDisplay:10.37,2013-04-24 09:26:00,
2013-04-24 04:31:00,54.5,52.8,29.30,NNE,24,17.8,17.8,94,0.00,,FEW,0.00,WeatherDisplay:10.37,2013-04-24 09:31:00,
2013-04-24 04:36:00,54.3,52.9,29.30,NNE,18,15.4,15.4,95,0.00,,FEW,0.00,WeatherDisplay:10.37,2013-04-24 09:36:00,
2013-04-24 04:41:00,54.1,52.7,29.31,North,356,11.7,11.7,95,0.00,,FEW,0.00,WeatherDisplay:10.37,2013-04-24 09:41:00,
2013-04-24 04:46:00,53.9,52.5,29.31,North,353,6.9,12.7,95,0.00,,FEW,0.00,WeatherDisplay:10.37,2013-04-24 09:46:00,
2013-04-24 04:51:00,53.5,52.1,29.31,North,359,11.8,11.8,95,0.00,,FEW,0.00,WeatherDisplay:10.37,2013-04-24 09:51:00,
2013-04-24 04:56:00,53.2,51.8,29.31,NNW,348,15.0,15.0,95,0.01,RA,FEW,0.01,WeatherDisplay:10.37,2013-04-24 09:56:00,
2013-04-24 05:01:00,53.0,51.6,29.31,North,2,10.0,13.2,95,0.01,RA,FEW,0.01,WeatherDisplay:10.37,2013-04-24 10:01:00,
2013-04-24 05:06:00,52.7,51.3,29.31,NNW,343,10.9,18.4,95,0.01,,FEW,0.01,WeatherDisplay:10.37,2013-04-24 10:06:00,
2013-04-24 05:11:00,52.5,51.1,29.32,NW,324,17.3,23.0,95,0.01,,FEW,0.01,WeatherDisplay:10.37,2013-04-24 10:11:00,
2013-04-24 05:16:00,52.3,52.3,29.32,NNW,333,13.4,13.4,100,0.01,,FEW,0.01,WeatherDisplay:10.37,2013-04-24 10:16:00,
2013-04-24 05:21:00,52.0,52.0,29.32,NNE,14,9.7,11.5,100,0.01,,FEW,0.01,WeatherDisplay:10.37,2013-04-24 10:21:00,
2013-04-24 05:26:00,51.9,51.9,29.32,NE,38,10.9,11.5,100,0.01,,FEW,0.01,WeatherDisplay:10.37,2013-04-24 10:26:00,
2013-04-24 05:31:00,51.8,51.8,29.33,NE,38,8.0,15.0,100,0.01,,FEW,0.01,WeatherDisplay:10.37,2013-04-24 10:31:00,
2013-04-24 05:36:00,51.6,51.6,29.33,North,9,17.2,17.2,100,0.01,,FEW,0.01,WeatherDisplay:10.37,2013-04-24 10:36:00,
2013-04-24 05:41:00,51.3,51.3,29.33,NNW,341,19.7,19.7,100,0.01,,FEW,0.01,WeatherDisplay:10.37,2013-04-24 10:41:00,
2013-04-24 05:46:00,51.2,51.2,29.33,ENE,60,12.6,12.6,100,0.01,,FEW,0.01,WeatherDisplay:10.37,2013-04-24 10:46:00,
2013-04-24 05:51:00,51.2,51.2,29.32,North,2,15.8,15.8,100,0.01,,FEW,0.01,WeatherDisplay:10.37,2013-04-24 10:51:00,
2013-04-24 05:56:00,51.0,51.0,29.33,North,360,14.7,15.0,100,0.00,,FEW,0.01,WeatherDisplay:10.37,2013-04-24 10:56:00,
2013-04-24 06:01:00,50.9,50.9,29.33,North,9,13.4,13.4,100,0.00,,FEW,0.01,WeatherDisplay:10.37,2013-04-24 11:01:00,
2013-04-24 06:06:00,50.8,50.8,29.33,ENE,66,13.5,13.5,100,0.00,,FEW,0.01,WeatherDisplay:10.37,2013-04-24 11:06:00,
2013-04-24 06:11:00,50.6,50.6,29.33,East,84,8.5,12.7,100,0.00,,FEW,0.01,WeatherDisplay:10.37,2013-04-24 11:11:00,
2013-04-24 06:16:00,50.6,50.6,29.33,NNW,348,10.1,15.0,100,0.00,,FEW,0.01,WeatherDisplay:10.37,2013-04-24 11:16:00,
2013-04-24 06:21:00,50.6,50.6,29.33,North,5,15.7,15.7,100,0.00,,FEW,0.01,WeatherDisplay:10.37,2013-04-24 11:21:00,
2013-04-24 06:26:00,50.5,50.5,29.34,NNE,33,13.8,18.4,100,0.00,,FEW,0.01,WeatherDisplay:10.37,2013-04-24 11:26:00,
2013-04-24 06:31:00,50.4,50.4,29.33,NNE,18,16.0,16.0,100,0.00,,FEW,0.01,WeatherDisplay:10.37,2013-04-24 11:31:00,
2013-04-24 06:36:00,50.3,50.3,29.34,NNW,348,13.1,13.1,100,0.00,,FEW,0.01,WeatherDisplay:10.37,2013-04-24 11:36:00,
2013-04-24 06:41:00,50.2,50.2,29.34,North,357,11.5,11.5,100,0.00,,FEW,0.01,WeatherDisplay:10.37,2013-04-24 11:41:00,
2013-04-24 06:46:00,50.0,50.0,29.33,North,352,16.1,16.1,100,0.00,,FEW,0.01,WeatherDisplay:10.37,2013-04-24 11:46:00,
2013-04-24 06:51:00,49.8,49.8,29.34,NNE,28,16.8,17.3,100,0.00,,FEW,0.01,WeatherDisplay:10.37,2013-04-24 11:51:00,
2013-04-24 06:56:00,49.7,48.3,29.34,NNE,12,21.7,21.7,95,0.00,,FEW,0.01,WeatherDisplay:10.37,2013-04-24 11:56:00,
2013-04-24 07:01:00,49.6,48.2,29.34,NNE,28,14.5,18.4,95,0.00,,FEW,0.01,WeatherDisplay:10.37,2013-04-24 12:01:00,
2013-04-24 07:06:00,49.6,48.2,29.35,NNW,348,19.0,19.0,95,0.00,,FEW,0.01,WeatherDisplay:10.37,2013-04-24 12:06:00,
2013-04-24 07:11:00,49.6,48.2,29.35,ENE,66,21.3,21.3,95,0.00,,FEW,0.01,WeatherDisplay:10.37,2013-04-24 12:11:00,
2013-04-24 07:16:00,49.6,47.9,29.35,NNE,33,17.2,17.2,94,0.00,,FEW,0.01,WeatherDisplay:10.37,2013-04-24 12:16:00,
2013-04-24 07:21:00,49.7,48.0,29.35,NNE,13,8.7,11.5,94,0.00,,FEW,0.01,WeatherDisplay:10.37,2013-04-24 12:21:00,
2013-04-24 07:26:00,49.7,48.0,29.36,NE,50,14.9,15.0,94,0.00,,FEW,0.01,WeatherDisplay:10.37,2013-04-24 12:26:00,
2013-04-24 07:31:00,49.7,47.8,29.36,North,352,15.5,17.3,93,0.00,,FEW,0.01,WeatherDisplay:10.37,2013-04-24 12:31:00,
2013-04-24 07:36:00,49.8,47.9,29.36,North,352,13.5,13.5,93,0.00,,FEW,0.01,WeatherDisplay:10.37,2013-04-24 12:36:00,
2013-04-24 07:41:00,49.8,47.9,29.36,North,360,19.1,19.1,93,0.00,,FEW,0.01,WeatherDisplay:10.37,2013-04-24 12:41:00,
2013-04-24 07:46:00,49.9,47.7,29.36,NE,49,8.6,11.5,92,0.00,,FEW,0.01,WeatherDisplay:10.37,2013-04-24 12:46:00,
2013-04-24 07:51:00,50.0,47.8,29.36,ENE,58,13.1,18.4,92,0.00,,FEW,0.01,WeatherDisplay:10.37,2013-04-24 12:51:00,
2013-04-24 07:56:00,50.1,48.2,29.36,North,9,5.8,15.0,93,0.00,,FEW,0.01,WeatherDisplay:10.37,2013-04-24 12:56:00,
2013-04-24 08:01:00,50.2,48.0,29.36,NNE,15,14.3,17.3,92,0.00,,FEW,0.01,WeatherDisplay:10.37,2013-04-24 13:01:00,
2013-04-24 08:06:00,50.2,48.0,29.37,ENE,66,10.4,10.4,92,0.00,,FEW,0.01,WeatherDisplay:10.37,2013-04-24 13:06:00,
2013-04-24 08:11:00,50.3,48.1,29.37,North,353,11.2,11.3,92,0.00,,FEW,0.01,WeatherDisplay:10.37,2013-04-24 13:11:00,
2013-04-24 08:16:00,50.4,48.2,29.37,NNE,32,10.9,10.9,92,0.00,,FEW,0.01,WeatherDisplay:10.37,2013-04-24 13:16:00,
2013-04-24 08:21:00,50.6,48.4,29.38,NE,36,5.8,5.8,92,0.00,,FEW,0.01,WeatherDisplay:10.37,2013-04-24 13:21:00,
2013-04-24 08:26:00,50.8,48.6,29.38,North,9,12.0,12.0,92,0.00,,FEW,0.01,WeatherDisplay:10.37,2013-04-24 13:26:00,
2013-04-24 08:31:00,50.9,48.4,29.39,NNE,25,15.9,20.7,91,0.00,,FEW,0.01,WeatherDisplay:10.37,2013-04-24 13:31:00,
2013-04-24 08:36:00,51.0,48.5,29.38,NE,45,8.9,8.9,91,0.00,,FEW,0.01,WeatherDisplay:10.37,2013-04-24 13:36:00,
2013-04-24 08:41:00,51.1,48.6,29.38,NE,52,13.1,13.1,91,0.00,,FEW,0.01,WeatherDisplay:10.37,2013-04-24 13:41:00,
2013-04-24 08:46:00,51.3,48.8,29.38,ENE,69,4.2,4.2,91,0.00,,FEW,0.01,WeatherDisplay:10.37,2013-04-24 13:46:00,
2013-04-24 08:51:00,51.3,48.5,29.38,NNW,329,8.8,8.8,90,0.00,,FEW,0.01,WeatherDisplay:10.37,2013-04-24 13:51:00,
2013-04-24 08:56:00,51.3,48.2,29.38,North,360,18.8,18.8,89,0.00,,FEW,0.01,WeatherDisplay:10.37,2013-04-24 13:56:00,
2013-04-24 09:01:00,51.3,48.2,29.38,NNW,339,17.3,17.3,89,0.00,,FEW,0.01,WeatherDisplay:10.37,2013-04-24 14:01:00,
2013-04-24 09:06:00,51.4,48.3,29.38,NE,56,9.4,9.4,89,0.00,,FEW,0.01,WeatherDisplay:10.37,2013-04-24 14:06:00,
2013-04-24 09:11:00,51.5,48.1,29.39,North,358,14.4,14.4,88,0.00,,FEW,0.01,WeatherDisplay:10.37,2013-04-24 14:11:00,
2013-04-24 09:16:00,51.5,48.1,29.39,NNW,341,17.4,17.4,88,0.00,,FEW,0.01,WeatherDisplay:10.37,2013-04-24 14:16:00,
2013-04-24 09:21:00,51.7,48.3,29.39,ENE,66,11.8,15.0,88,0.00,,FEW,0.01,WeatherDisplay:10.37,2013-04-24 14:21:00,
2013-04-24 09:26:00,51.9,48.5,29.39,North,350,8.7,11.5,88,0.00,,FEW,0.01,WeatherDisplay:10.37,2013-04-24 14:26:00,
2013-04-24 09:31:00,52.0,48.3,29.39,NE,41,15.9,20.7,87,0.00,,FEW,0.01,WeatherDisplay:10.37,2013-04-24 14:31:00,
2013-04-24 09:36:00,52.1,48.3,29.39,NNE,31,15.7,17.3,87,0.00,,FEW,0.01,WeatherDisplay:10.37,2013-04-24 14:36:00,
2013-04-24 09:41:00,52.2,48.1,29.39,ENE,73,11.6,11.6,86,0.00,,FEW,0.01,WeatherDisplay:10.37,2013-04-24 14:41:00,
2013-04-24 09:46:00,52.2,47.8,29.40,NE,41,15.1,15.1,85,0.00,,FEW,0.01,WeatherDisplay:10.37,2013-04-24 14:46:00,
2013-04-24 09:51:00,52.3,47.9,29.40,NNW,341,12.1,12.1,85,0.00,,FEW,0.01,WeatherDisplay:10.37,2013-04-24 14:51:00,
2013-04-24 09:56:00,52.3,47.9,29.40,ENE,57,3.8,5.8,85,0.00,,FEW,0.01,WeatherDisplay:10.37,2013-04-24 14:56:00,
2013-04-24 10:01:00,52.3,47.9,29.40,North,1,12.2,12.2,85,0.00,,FEW,0.01,WeatherDisplay:10.37,2013-04-24 15:01:00,
2013-04-24 10:09:00,52.4,48.0,29.40,NNE,19,6.5,13.2,85,0.00,,FEW,0.01,WeatherDisplay:10.37,2013-04-24 15:09:00,
2013-04-24 10:14:00,52.5,48.1,29.40,NNW,345,6.0,6.0,85,0.00,,FEW,0.01,WeatherDisplay:10.37,2013-04-24 15:14:00,
2013-04-24 10:19:00,52.7,48.3,29.40,NNW,335,6.3,6.3,85,0.00,,FEW,0.01,WeatherDisplay:10.37,2013-04-24 15:19:00,
2013-04-24 10:24:00,52.8,48.1,29.41,NE,45,6.8,9.2,84,0.00,,FEW,0.01,WeatherDisplay:10.37,2013-04-24 15:24:00,
2013-04-24 10:29:00,53.0,48.3,29.41,NNW,348,4.4,4.4,84,0.00,,FEW,0.01,WeatherDisplay:10.37,2013-04-24 15:29:00,
2013-04-24 10:34:00,53.0,48.0,29.42,North,3,11.8,11.8,83,0.00,,FEW,0.01,WeatherDisplay:10.37,2013-04-24 15:34:00,
2013-04-24 10:39:00,52.9,47.6,29.42,NNE,24,11.9,11.9,82,0.00,,FEW,0.01,WeatherDisplay:10.37,2013-04-24 15:39:00,
2013-04-24 10:44:00,53.0,48.0,29.42,NNE,26,10.1,10.1,83,0.00,,FEW,0.01,WeatherDisplay:10.37,2013-04-24 15:44:00,
2013-04-24 10:49:00,53.2,48.2,29.42,NNW,348,6.4,9.2,83,0.00,,FEW,0.01,WeatherDisplay:10.37,2013-04-24 15:49:00,
2013-04-24 10:54:00,53.3,47.9,29.42,NNE,13,8.8,9.2,82,0.00,,FEW,0.01,WeatherDisplay:10.37,2013-04-24 15:54:00,
2013-04-24 10:59:00,53.4,48.0,29.42,North,4,7.4,8.1,82,0.00,,FEW,0.01,WeatherDisplay:10.37,2013-04-24 15:59:00,
2013-04-24 11:04:00,53.5,47.8,29.42,North,359,8.5,9.2,81,0.00,,FEW,0.01,WeatherDisplay:10.37,2013-04-24 16:04:00,
2013-04-24 11:09:00,53.4,47.7,29.42,NNE,14,5.0,8.1,81,0.00,,FEW,0.01,WeatherDisplay:10.37,2013-04-24 16:09:00,
2013-04-24 11:14:00,53.6,47.9,29.43,NNE,20,5.7,5.8,81,0.00,,FEW,0.01,WeatherDisplay:10.37,2013-04-24 16:14:00,
2013-04-24 11:19:00,53.5,47.8,29.43,ENE,77,4.5,8.1,81,0.00,,FEW,0.01,WeatherDisplay:10.37,2013-04-24 16:19:00,
2013-04-24 11:24:00,53.4,47.7,29.43,NNW,345,8.5,8.5,81,0.00,,FEW,0.01,WeatherDisplay:10.37,2013-04-24 16:24:00,
2013-04-24 11:29:00,53.3,47.6,29.43,NE,56,6.7,6.7,81,0.00,,FEW,0.01,WeatherDisplay:10.37,2013-04-24 16:29:00,
2013-04-24 11:34:00,53.3,47.3,29.43,NNE,28,10.8,10.8,80,0.00,,FEW,0.01,WeatherDisplay:10.37,2013-04-24 16:34:00,
2013-04-24 11:39:00,53.2,47.5,29.43,NE,35,3.6,8.1,81,0.00,,FEW,0.01,WeatherDisplay:10.37,2013-04-24 16:39:00,
2013-04-24 11:44:00,53.3,47.6,29.43,North,5,10.9,10.9,81,0.00,,FEW,0.01,WeatherDisplay:10.37,2013-04-24 16:44:00,
2013-04-24 11:49:00,53.4,47.7,29.43,NNE,29,5.8,8.1,81,0.00,,FEW,0.01,WeatherDisplay:10.37,2013-04-24 16:49:00,
2013-04-24 11:54:00,53.3,47.3,29.43,NNE,16,10.0,10.0,80,0.00,,FEW,0.01,WeatherDisplay:10.37,2013-04-24 16:54:00,
2013-04-24 11:59:00,53.2,47.5,29.43,North,349,3.8,7.5,81,0.00,,FEW,0.01,WeatherDisplay:10.37,2013-04-24 16:59:00,
2013-04-24 12:04:00,53.4,47.7,29.43,North,358,4.3,4.3,81,0.00,,FEW,0.01,WeatherDisplay:10.37,2013-04-24 17:04:00,
2013-04-24 12:09:00,53.3,47.6,29.43,NNW,341,8.6,9.4,81,0.00,,FEW,0.01,WeatherDisplay:10.37,2013-04-24 17:09:00,
2013-04-24 12:14:00,53.0,47.3,29.43,NE,38,11.5,11.5,81,0.00,,FEW,0.01,WeatherDisplay:10.37,2013-04-24 17:14:00,
2013-04-24 12:19:00,53.0,47.7,29.43,NNE,24,11.4,11.4,82,0.00,,FEW,0.01,WeatherDisplay:10.37,2013-04-24 17:19:00,
2013-04-24 12:24:00,53.1,47.7,29.43,NNW,333,11.4,11.5,82,0.00,,FEW,0.01,WeatherDisplay:10.37,2013-04-24 17:24:00,
2013-04-24 12:29:00,53.1,47.7,29.43,NNW,346,12.1,12.1,82,0.00,,FEW,0.01,WeatherDisplay:10.37,2013-04-24 17:29:00,
2013-04-24 12:34:00,53.1,47.7,29.43,North,353,9.2,11.5,82,0.00,,FEW,0.01,WeatherDisplay:10.37,2013-04-24 17:34:00,
2013-04-24 12:39:00,53.1,47.7,29.43,NNE,31,4.4,9.2,82,0.00,,FEW,0.01,WeatherDisplay:10.37,2013-04-24 17:39:00,
2013-04-24 12:44:00,53.3,47.9,29.43,NE,54,9.5,9.5,82,0.00,,FEW,0.01,WeatherDisplay:10.37,2013-04-24 17:44:00,
2013-04-24 12:49:00,53.3,47.9,29.43,North,352,4.6,5.8,82,0.00,,FEW,0.01,WeatherDisplay:10.37,2013-04-24 17:49:00,
2013-04-24 12:54:00,53.1,47.7,29.43,North,11,7.1,7.1,82,0.00,,FEW,0.01,WeatherDisplay:10.37,2013-04-24 17:54:00,
2013-04-24 12:59:00,53.0,47.7,29.43,NNE,21,8.4,8.4,82,0.00,,FEW,0.01,WeatherDisplay:10.37,2013-04-24 17:59:00,
2013-04-24 13:04:00,52.9,47.6,29.43,North,352,8.2,8.2,82,0.00,,FEW,0.01,WeatherDisplay:10.37,2013-04-24 18:04:00,
2013-04-24 13:09:00,52.6,47.6,29.43,North,2,3.2,8.1,83,0.00,,FEW,0.01,WeatherDisplay:10.37,2013-04-24 18:09:00,
2013-04-24 13:14:00,52.4,47.7,29.43,North,355,5.7,5.8,84,0.00,,FEW,0.01,WeatherDisplay:10.37,2013-04-24 18:14:00,
2013-04-24 13:19:00,52.3,47.6,29.43,NE,46,2.3,8.1,84,0.00,,FEW,0.01,WeatherDisplay:10.37,2013-04-24 18:19:00,
2013-04-24 13:24:00,52.4,47.7,29.43,ENE,58,1.5,2.3,84,0.00,,FEW,0.01,WeatherDisplay:10.37,2013-04-24 18:24:00,
2013-04-24 13:29:00,52.4,48.0,29.44,NE,53,3.2,3.2,85,0.00,,FEW,0.01,WeatherDisplay:10.37,2013-04-24 18:29:00,
2013-04-24 13:34:00,52.2,48.1,29.44,NE,46,3.6,8.1,86,0.01,RA,FEW,0.02,WeatherDisplay:10.37,2013-04-24 18:34:00,
2013-04-24 13:39:00,52.1,48.3,29.44,ENE,63,6.2,6.2,87,0.01,RA,FEW,0.02,WeatherDisplay:10.37,2013-04-24 18:39:00,
2013-04-24 13:44:00,51.9,48.5,29.44,NE,53,1.4,2.3,88,0.01,,FEW,0.02,WeatherDisplay:10.37,2013-04-24 18:44:00,
2013-04-24 13:49:00,51.8,49.0,29.44,NE,52,0.7,2.3,90,0.02,RA,FEW,0.03,WeatherDisplay:10.37,2013-04-24 18:49:00,
2013-04-24 13:54:00,51.8,49.0,29.43,NE,56,0.4,1.9,90,0.02,RA,FEW,0.03,WeatherDisplay:10.37,2013-04-24 18:54:00,
2013-04-24 13:59:00,51.9,49.4,29.43,ENE,70,1.1,2.3,91,0.02,RA,FEW,0.03,WeatherDisplay:10.37,2013-04-24 18:59:00,
2013-04-24 14:04:00,51.9,49.6,29.43,NE,45,0.7,2.3,92,0.02,,FEW,0.03,WeatherDisplay:10.37,2013-04-24 19:04:00,
2013-04-24 14:09:00,52.1,49.8,29.43,NE,49,2.2,3.5,92,0.02,,FEW,0.03,WeatherDisplay:10.37,2013-04-24 19:09:00,
2013-04-24 14:14:00,52.1,49.8,29.43,North,353,1.3,2.3,92,0.02,,FEW,0.03,WeatherDisplay:10.37,2013-04-24 19:14:00,
2013-04-24 14:19:00,52.2,50.2,29.44,ENE,57,0.9,2.3,93,0.02,,FEW,0.03,WeatherDisplay:10.37,2013-04-24 19:19:00,
2013-04-24 14:24:00,52.5,50.5,29.43,NE,49,0.1,3.5,93,0.02,,FEW,0.03,WeatherDisplay:10.37,2013-04-24 19:24:00,
2013-04-24 14:29:00,52.7,50.7,29.43,North,357,0.9,2.3,93,0.02,,FEW,0.03,WeatherDisplay:10.37,2013-04-24 19:29:00,
2013-04-24 14:34:00,52.9,50.9,29.43,NNE,18,1.0,3.5,93,0.02,,FEW,0.03,WeatherDisplay:10.37,2013-04-24 19:34:00,
2013-04-24 14:39:00,52.9,50.9,29.43,NNW,329,0.0,2.3,93,0.01,,FEW,0.03,WeatherDisplay:10.37,2013-04-24 19:39:00,
2013-04-24 14:44:00,53.1,51.1,29.43,ENE,62,4.2,8.1,93,0.01,,FEW,0.03,WeatherDisplay:10.37,2013-04-24 19:44:00,
2013-04-24 14:49:00,53.2,51.2,29.42,North,6,0.9,3.8,93,0.01,,FEW,0.03,WeatherDisplay:10.37,2013-04-24 19:49:00,
2013-04-24 14:54:00,53.5,51.5,29.42,NNE,17,1.1,3.5,93,0.00,,FEW,0.03,WeatherDisplay:10.37,2013-04-24 19:54:00,
2013-04-24 14:59:00,53.5,51.2,29.42,NE,54,1.1,0.0,92,0.00,,FEW,0.03,WeatherDisplay:10.37,2013-04-24 19:59:00,
2013-04-24 15:04:00,53.6,51.3,29.43,ENE,73,0.1,2.3,92,0.00,,FEW,0.03,WeatherDisplay:10.37,2013-04-24 20:04:00,
2013-04-24 15:09:00,53.7,51.4,29.43,North,10,0.8,1.9,92,0.00,,FEW,0.03,WeatherDisplay:10.37,2013-04-24 20:09:00,
2013-04-24 15:14:00,53.8,51.2,29.42,ENE,69,0.5,3.5,91,0.00,,FEW,0.03,WeatherDisplay:10.37,2013-04-24 20:14:00,
2013-04-24 15:19:00,53.9,51.3,29.42,East,88,0.1,1.1,91,0.00,,FEW,0.03,WeatherDisplay:10.37,2013-04-24 20:19:00,
2013-04-24 15:24:00,54.1,51.2,29.42,NE,50,1.2,2.3,90,0.00,,FEW,0.03,WeatherDisplay:10.37,2013-04-24 20:24:00,
2013-04-24 15:29:00,54.1,50.9,29.42,NE,54,0.5,2.3,89,0.00,,FEW,0.03,WeatherDisplay:10.37,2013-04-24 20:29:00,
2013-04-24 15:34:00,54.2,51.0,29.42,ENE,58,0.1,2.3,89,0.00,,FEW,0.03,WeatherDisplay:10.37,2013-04-24 20:34:00,
2013-04-24 15:39:00,54.3,51.1,29.42,NNE,29,0.0,2.3,89,0.00,,FEW,0.03,WeatherDisplay:10.37,2013-04-24 20:39:00,
2013-04-24 15:44:00,54.5,51.3,29.42,North,352,0.7,0.0,89,0.00,,FEW,0.03,WeatherDisplay:10.37,2013-04-24 20:44:00,
2013-04-24 15:49:00,54.6,51.4,29.42,North,351,0.0,2.3,89,0.00,,FEW,0.03,WeatherDisplay:10.37,2013-04-24 20:49:00,
2013-04-24 15:54:00,54.7,51.2,29.42,NNW,345,0.3,2.3,88,0.00,,FEW,0.03,WeatherDisplay:10.37,2013-04-24 20:54:00,
2013-04-24 15:59:00,54.8,51.0,29.41,North,356,0.3,2.3,87,0.00,,FEW,0.03,WeatherDisplay:10.37,2013-04-24 20:59:00,
2013-04-24 16:04:00,55.2,51.7,29.41,East,88,0.0,0.0,88,0.00,,FEW,0.03,WeatherDisplay:10.37,2013-04-24 21:04:00,
2013-04-24 16:09:00,55.6,51.8,29.41,NE,51,0.0,2.3,87,0.00,,FEW,0.03,WeatherDisplay:10.37,2013-04-24 21:09:00,
2013-04-24 16:14:00,55.7,51.9,29.41,NNE,29,0.0,0.0,87,0.00,,FEW,0.03,WeatherDisplay:10.37,2013-04-24 21:14:00,
2013-04-24 16:19:00,56.0,51.9,29.40,NE,55,0.0,2.3,86,0.00,,FEW,0.03,WeatherDisplay:10.37,2013-04-24 21:19:00,
2013-04-24 16:24:00,56.1,51.7,29.41,NE,49,0.7,0.0,85,0.00,,FEW,0.03,WeatherDisplay:10.37,2013-04-24 21:24:00,
2013-04-24 16:29:00,56.2,51.4,29.41,NNE,28,0.3,2.3,84,0.00,,FEW,0.03,WeatherDisplay:10.37,2013-04-24 21:29:00,
2013-04-24 16:34:00,56.5,52.0,29.40,NE,49,0.1,2.3,85,0.00,,FEW,0.03,WeatherDisplay:10.37,2013-04-24 21:34:00,
2013-04-24 16:39:00,56.6,51.8,29.40,NNE,26,1.5,3.5,84,0.00,,FEW,0.03,WeatherDisplay:10.37,2013-04-24 21:39:00,
2013-04-24 16:44:00,56.8,51.7,29.40,NE,41,1.8,2.3,83,0.00,,FEW,0.03,WeatherDisplay:10.37,2013-04-24 21:44:00,
2013-04-24 16:49:00,56.9,51.8,29.40,NE,49,0.3,2.3,83,0.00,,FEW,0.03,WeatherDisplay:10.37,2013-04-24 21:49:00,
2013-04-24 16:54:00,57.0,51.9,29.39,NE,41,0.1,0.0,83,0.00,,FEW,0.03,WeatherDisplay:10.37,2013-04-24 21:54:00,
2013-04-24 16:59:00,57.2,52.1,29.39,North,360,2.5,3.5,83,0.00,,FEW,0.03,WeatherDisplay:10.37,2013-04-24 21:59:00,
2013-04-24 17:04:00,57.5,52.4,29.39,NNE,24,2.3,2.3,83,0.00,,FEW,0.03,WeatherDisplay:10.37,2013-04-24 22:04:00,
2013-04-24 17:09:00,57.8,52.3,29.39,North,356,1.9,2.3,82,0.00,,FEW,0.03,WeatherDisplay:10.37,2013-04-24 22:09:00,
2013-04-24 17:14:00,58.0,51.9,29.38,NE,39,0.8,5.8,80,0.00,,FEW,0.03,WeatherDisplay:10.37,2013-04-24 22:14:00,
2013-04-24 17:19:00,58.3,52.2,29.39,North,5,2.3,2.3,80,0.00,,FEW,0.03,WeatherDisplay:10.37,2013-04-24 22:19:00,
2013-04-24 17:24:00,58.5,51.7,29.39,ENE,60,4.6,5.8,78,0.00,,FEW,0.03,WeatherDisplay:10.37,2013-04-24 22:24:00,
2013-04-24 17:29:00,58.7,51.9,29.39,North,356,4.8,5.8,78,0.00,,FEW,0.03,WeatherDisplay:10.37,2013-04-24 22:29:00,
2013-04-24 17:34:00,58.8,52.0,29.39,NE,39,1.6,3.5,78,0.00,,FEW,0.03,WeatherDisplay:10.37,2013-04-24 22:34:00,
2013-04-24 17:39:00,58.8,52.0,29.38,ENE,58,6.5,8.1,78,0.00,,FEW,0.03,WeatherDisplay:10.37,2013-04-24 22:39:00,
2013-04-24 17:44:00,58.9,51.7,29.38,North,11,2.8,5.8,77,0.00,,FEW,0.03,WeatherDisplay:10.37,2013-04-24 22:44:00,
2013-04-24 17:49:00,58.9,51.7,29.38,NNE,26,0.9,5.8,77,0.00,,FEW,0.03,WeatherDisplay:10.37,2013-04-24 22:49:00,
2013-04-24 17:54:00,59.1,51.9,29.38,ENE,59,6.5,9.2,77,0.00,,FEW,0.03,WeatherDisplay:10.37,2013-04-24 22:54:00,
2013-04-24 17:59:00,59.1,51.9,29.38,North,9,1.1,5.8,77,0.00,,FEW,0.03,WeatherDisplay:10.37,2013-04-24 22:59:00,
2013-04-24 18:04:00,59.2,52.0,29.39,NNW,346,0.7,2.3,77,0.00,,FEW,0.03,WeatherDisplay:10.37,2013-04-24 23:04:00,
2013-04-24 18:09:00,59.2,52.0,29.39,NNE,13,1.6,3.5,77,0.00,,FEW,0.03,WeatherDisplay:10.37,2013-04-24 23:09:00,
2013-04-24 18:14:00,59.2,51.6,29.39,North,9,1.7,3.5,76,0.00,,FEW,0.03,WeatherDisplay:10.37,2013-04-24 23:14:00,
2013-04-24 18:19:00,59.3,52.1,29.39,NE,42,0.2,2.3,77,0.00,,FEW,0.03,WeatherDisplay:10.37,2013-04-24 23:19:00,
2013-04-24 18:24:00,59.3,52.1,29.39,NE,49,3.4,8.1,77,0.00,,FEW,0.03,WeatherDisplay:10.37,2013-04-24 23:24:00,
2013-04-24 18:29:00,59.3,52.1,29.39,NE,52,0.0,2.3,77,0.00,,FEW,0.03,WeatherDisplay:10.37,2013-04-24 23:29:00,
2013-04-24 18:34:00,59.2,52.0,29.39,NE,45,1.1,3.5,77,0.00,,FEW,0.03,WeatherDisplay:10.37,2013-04-24 23:34:00,
2013-04-24 18:39:00,59.3,52.4,29.38,NE,46,0.2,0.0,78,0.00,,FEW,0.03,WeatherDisplay:10.37,2013-04-24 23:39:00,
2013-04-24 18:44:00,59.3,52.4,29.39,ENE,69,0.8,2.3,78,0.00,,FEW,0.03,WeatherDisplay:10.37,2013-04-24 23:44:00,
2013-04-24 18:49:00,59.3,52.8,29.39,NE,40,1.1,2.3,79,0.00,,FEW,0.03,WeatherDisplay:10.37,2013-04-24 23:49:00,
2013-04-24 18:54:00,59.3,52.8,29.39,NE,45,0.4,2.3,79,0.00,,FEW,0.03,WeatherDisplay:10.37,2013-04-24 23:54:00,
2013-04-24 18:59:00,59.3,52.8,29.39,NE,46,0.3,1.9,79,0.00,,FEW,0.03,WeatherDisplay:10.37,2013-04-24 23:59:00,
2013-04-24 19:04:00,59.3,53.1,29.39,NE,40,0.1,2.3,80,0.00,,FEW,0.03,WeatherDisplay:10.37,2013-04-25 00:04:00,
2013-04-24 19:09:00,59.4,53.2,29.39,NE,40,0.0,0.0,80,0.00,,FEW,0.03,WeatherDisplay:10.37,2013-04-25 00:09:00,
2013-04-24 19:14:00,59.4,53.6,29.40,NE,40,0.0,0.0,81,0.00,,FEW,0.03,WeatherDisplay:10.37,2013-04-25 00:14:00,
2013-04-24 19:19:00,59.5,53.7,29.41,NE,40,0.0,0.0,81,0.00,,FEW,0.03,WeatherDisplay:10.37,2013-04-25 00:19:00,
2013-04-24 19:24:00,59.4,53.6,29.40,NE,40,0.0,0.0,81,0.00,,FEW,0.03,WeatherDisplay:10.37,2013-04-25 00:24:00,
2013-04-24 19:29:00,59.4,53.6,29.40,NE,40,0.0,0.0,81,0.00,,FEW,0.03,WeatherDisplay:10.37,2013-04-25 00:29:00,
2013-04-24 19:34:00,59.3,53.8,29.40,NNE,25,0.1,2.3,82,0.00,,FEW,0.03,WeatherDisplay:10.37,2013-04-25 00:34:00,
2013-04-24 19:39:00,59.3,53.5,29.41,NNE,20,0.1,2.3,81,0.00,,FEW,0.03,WeatherDisplay:10.37,2013-04-25 00:39:00,
2013-04-24 19:44:00,59.3,53.5,29.41,NNE,20,0.0,2.3,81,0.00,,FEW,0.03,WeatherDisplay:10.37,2013-04-25 00:44:00,
2013-04-24 19:49:00,59.3,53.5,29.41,NNE,13,0.0,0.0,81,0.00,,FEW,0.03,WeatherDisplay:10.37,2013-04-25 00:49:00,
2013-04-24 19:54:00,59.3,53.5,29.41,NNW,342,0.0,0.0,81,0.00,,FEW,0.03,WeatherDisplay:10.37,2013-04-25 00:54:00,
2013-04-24 19:59:00,59.4,53.6,29.41,NNW,341,0.0,0.0,81,0.00,,FEW,0.03,WeatherDisplay:10.37,2013-04-25 00:59:00,
2013-04-24 20:04:00,59.5,53.7,29.41,NNW,341,0.0,0.0,81,0.00,,FEW,0.03,WeatherDisplay:10.37,2013-04-25 01:04:00,
2013-04-24 20:09:00,59.6,53.8,29.41,NNW,343,0.0,0.0,81,0.00,,FEW,0.03,WeatherDisplay:10.37,2013-04-25 01:09:00,
2013-04-24 20:14:00,59.7,53.9,29.41,NNE,17,0.9,2.3,81,0.00,,FEW,0.03,WeatherDisplay:10.37,2013-04-25 01:14:00,
2013-04-24 20:19:00,59.7,53.9,29.41,NNE,17,0.0,0.0,81,0.00,,FEW,0.03,WeatherDisplay:10.37,2013-04-25 01:19:00,
2013-04-24 20:24:00,59.7,53.9,29.41,NNE,20,0.3,0.0,81,0.00,,FEW,0.03,WeatherDisplay:10.37,2013-04-25 01:24:00,
2013-04-24 20:29:00,59.7,53.9,29.42,NNE,20,0.0,0.0,81,0.00,,FEW,0.03,WeatherDisplay:10.37,2013-04-25 01:29:00,
2013-04-24 20:34:00,59.7,53.9,29.42,NNE,19,0.0,0.0,81,0.00,,FEW,0.03,WeatherDisplay:10.37,2013-04-25 01:34:00,
2013-04-24 20:39:00,59.7,53.9,29.42,NNW,341,0.0,0.0,81,0.00,,FEW,0.03,WeatherDisplay:10.37,2013-04-25 01:39:00,
2013-04-24 20:44:00,59.7,53.9,29.42,NNE,26,0.0,0.0,81,0.00,,FEW,0.03,WeatherDisplay:10.37,2013-04-25 01:44:00,
2013-04-24 20:49:00,59.7,53.9,29.42,North,1,0.4,2.3,81,0.00,,FEW,0.03,WeatherDisplay:10.37,2013-04-25 01:49:00,
2013-04-24 20:54:00,59.7,54.2,29.42,North,3,0.0,2.3,82,0.00,,FEW,0.03,WeatherDisplay:10.37,2013-04-25 01:54:00,
2013-04-24 20:59:00,59.8,54.3,29.42,North,356,0.0,0.0,82,0.00,,FEW,0.03,WeatherDisplay:10.37,2013-04-25 01:59:00,
2013-04-24 21:04:00,59.9,54.4,29.42,NNE,24,0.7,2.3,82,0.00,,FEW,0.03,WeatherDisplay:10.37,2013-04-25 02:04:00,
2013-04-24 21:09:00,59.9,54.4,29.42,North,356,0.6,2.3,82,0.00,,FEW,0.03,WeatherDisplay:10.37,2013-04-25 02:09:00,
2013-04-24 21:14:00,60.0,54.5,29.42,NNE,15,0.0,0.0,82,0.00,,FEW,0.03,WeatherDisplay:10.37,2013-04-25 02:14:00,
2013-04-24 21:19:00,60.0,54.5,29.42,NNE,13,0.4,2.3,82,0.00,,FEW,0.03,WeatherDisplay:10.37,2013-04-25 02:19:00,
2013-04-24 21:24:00,60.0,54.5,29.43,NNE,13,0.0,0.0,82,0.00,,FEW,0.03,WeatherDisplay:10.37,2013-04-25 02:24:00,
2013-04-24 21:29:00,60.0,54.5,29.43,NNE,13,0.0,0.0,82,0.00,,FEW,0.03,WeatherDisplay:10.37,2013-04-25 02:29:00,
2013-04-24 21:34:00,60.0,54.5,29.43,NNE,13,0.1,0.0,82,0.00,,FEW,0.03,WeatherDisplay:10.37,2013-04-25 02:34:00,
2013-04-24 21:39:00,60.0,54.5,29.43,NNE,13,0.0,0.0,82,0.00,,FEW,0.03,WeatherDisplay:10.37,2013-04-25 02:39:00,
2013-04-24 21:44:00,60.1,54.6,29.44,NNE,13,0.0,0.0,82,0.00,,FEW,0.03,WeatherDisplay:10.37,2013-04-25 02:44:00,
2013-04-24 21:49:00,60.1,54.6,29.44,NNE,13,0.3,2.3,82,0.00,,FEW,0.03,WeatherDisplay:10.37,2013-04-25 02:49:00,
2013-04-24 21:54:00,60.1,54.9,29.44,NNE,13,0.0,0.0,83,0.00,,FEW,0.03,WeatherDisplay:10.37,2013-04-25 02:54:00,
2013-04-24 21:59:00,60.2,54.7,29.44,NNE,13,0.0,0.0,82,0.00,,FEW,0.03,WeatherDisplay:10.37,2013-04-25 02:59:00,
2013-04-24 22:04:00,60.3,54.8,29.44,North,11,0.0,0.0,82,0.00,,FEW,0.03,WeatherDisplay:10.37,2013-04-25 03:04:00,
2013-04-24 22:09:00,60.3,54.8,29.44,NE,45,0.4,2.3,82,0.00,,FEW,0.03,WeatherDisplay:10.37,2013-04-25 03:09:00,
2013-04-24 22:14:00,60.4,54.9,29.44,North,356,0.1,3.5,82,0.00,,FEW,0.03,WeatherDisplay:10.37,2013-04-25 03:14:00,
2013-04-24 22:19:00,60.5,55.0,29.44,NE,47,0.0,0.0,82,0.00,,FEW,0.03,WeatherDisplay:10.37,2013-04-25 03:19:00,
2013-04-24 22:24:00,60.5,55.0,29.44,NE,45,0.1,2.3,82,0.00,,FEW,0.03,WeatherDisplay:10.37,2013-04-25 03:24:00,
2013-04-24 22:29:00,60.6,55.1,29.44,ENE,71,0.0,0.0,82,0.00,,FEW,0.03,WeatherDisplay:10.37,2013-04-25 03:29:00,
2013-04-24 22:34:00,60.6,55.1,29.44,NNE,14,0.0,0.0,82,0.00,,FEW,0.03,WeatherDisplay:10.37,2013-04-25 03:34:00,
2013-04-24 22:39:00,60.7,55.2,29.44,NE,49,0.1,2.3,82,0.00,,FEW,0.03,WeatherDisplay:10.37,2013-04-25 03:39:00,
2013-04-24 22:44:00,60.8,55.3,29.44,NNW,342,0.0,2.3,82,0.00,,FEW,0.03,WeatherDisplay:10.37,2013-04-25 03:44:00,
2013-04-24 22:49:00,61.0,55.5,29.44,NNE,19,0.0,0.0,82,0.00,,FEW,0.03,WeatherDisplay:10.37,2013-04-25 03:49:00,
2013-04-24 22:54:00,61.0,55.1,29.44,NE,55,0.9,2.3,81,0.00,,FEW,0.03,WeatherDisplay:10.37,2013-04-25 03:54:00,
2013-04-24 22:59:00,61.2,55.3,29.44,North,358,0.6,5.8,81,0.00,,FEW,0.03,WeatherDisplay:10.37,2013-04-25 03:59:00,
2013-04-24 23:01:00,61.2,55.3,29.44,NNW,345,1.5,2.3,81,0.00,,FEW,0.03,WeatherDisplay:10.37,2013-04-25 04:01:00,
2013-04-24 23:06:00,61.3,55.4,29.44,North,3,2.3,2.3,81,0.00,,FEW,0.03,WeatherDisplay:10.37,2013-04-25 04:06:00,
2013-04-24 23:11:00,61.3,55.1,29.44,North,9,0.4,1.9,80,0.00,,FEW,0.03,WeatherDisplay:10.37,2013-04-25 04:11:00,
2013-04-24 23:16:00,61.4,55.2,29.44,North,350,0.0,0.0,80,0.00,,FEW,0.03,WeatherDisplay:10.37,2013-04-25 04:16:00,
2013-04-24 23:21:00,61.5,55.3,29.45,North,9,0.5,0.0,80,0.00,,FEW,0.03,WeatherDisplay:10.37,2013-04-25 04:21:00,
2013-04-24 23:26:00,61.6,55.4,29.45,North,358,0.0,2.3,80,0.00,,FEW,0.03,WeatherDisplay:10.37,2013-04-25 04:26:00,
2013-04-24 23:31:00,61.6,55.4,29.45,ENE,64,0.5,2.3,80,0.00,,FEW,0.03,WeatherDisplay:10.37,2013-04-25 04:31:00,
2013-04-24 23:36:00,61.6,55.4,29.45,NNE,16,0.0,0.0,80,0.00,,FEW,0.03,WeatherDisplay:10.37,2013-04-25 04:36:00,
2013-04-24 23:41:00,61.6,55.7,29.45,NE,45,0.3,2.3,81,0.00,,FEW,0.03,WeatherDisplay:10.37,2013-04-25 04:41:00,
2013-04-24 23:46:00,61.6,55.7,29.44,NE,43,0.1,2.3,81,0.00,,FEW,0.03,WeatherDisplay:10.37,2013-04-25 04:46:00,
2013-04-24 23:51:00,61.6,55.7,29.45,NE,40,0.0,0.0,81,0.00,,FEW,0.03,WeatherDisplay:10.37,2013-04-25 04:51:00,
2013-04-24 23:56:00,61.6,56.0,29.45,NE,40,0.0,2.3,82,0.00,,FEW,0.03,WeatherDisplay:10.37,2013-04-25 04:56:00,